sensor_id;sensor_type;location;lat;lon;timestamp;P1;durP1;ratioP1;P2;durP2;ratioP2
14975;SDS011;7584;60.468;25.126;2023-02-11T00:01:19;3.43;;;1.00;;
14975;SDS011;7584;60.468;25.126;2023-02-11T00:03:44;3.13;;;0.63;;
14975;SDS011;7584;60.468;25.126;2023-02-11T00:06:10;3.90;;;0.90;;
14975;SDS011;7584;60.468;25.126;2023-02-11T00:08:35;5.43;;;1.00;;
14975;SDS011;7584;60.468;25.126;2023-02-11T00:11:01;1.80;;;0.80;;
14975;SDS011;7584;60.468;25.126;2023-02-11T00:13:26;8.03;;;3.23;;
14975;SDS011;7584;60.468;25.126;2023-02-11T00:15:52;3.47;;;1.30;;
14975;SDS011;7584;60.468;25.126;2023-02-11T00:18:17;3.23;;;1.00;;
14975;SDS011;7584;60.468;25.126;2023-02-11T00:20:43;2.47;;;0.70;;
14975;SDS011;7584;60.468;25.126;2023-02-11T00:23:08;2.97;;;0.83;;
14975;SDS011;7584;60.468;25.126;2023-02-11T00:25:37;2.73;;;0.80;;
14975;SDS011;7584;60.468;25.126;2023-02-11T00:28:02;2.57;;;0.80;;
14975;SDS011;7584;60.468;25.126;2023-02-11T00:30:28;5.73;;;1.30;;
14975;SDS011;7584;60.468;25.126;2023-02-11T00:32:53;3.83;;;0.87;;
14975;SDS011;7584;60.468;25.126;2023-02-11T00:35:18;2.97;;;0.67;;
14975;SDS011;7584;60.468;25.126;2023-02-11T00:37:43;0.87;;;0.60;;
14975;SDS011;7584;60.468;25.126;2023-02-11T00:40:09;3.87;;;0.70;;
14975;SDS011;7584;60.468;25.126;2023-02-11T00:42:34;4.87;;;0.73;;
14975;SDS011;7584;60.468;25.126;2023-02-11T00:45:00;4.33;;;1.07;;
14975;SDS011;7584;60.468;25.126;2023-02-11T00:47:25;2.20;;;0.97;;
14975;SDS011;7584;60.468;25.126;2023-02-11T00:49:51;4.80;;;0.60;;
14975;SDS011;7584;60.468;25.126;2023-02-11T00:52:16;2.47;;;0.60;;
14975;SDS011;7584;60.468;25.126;2023-02-11T00:54:41;3.63;;;0.77;;
14975;SDS011;7584;60.468;25.126;2023-02-11T00:57:06;2.90;;;0.73;;
14975;SDS011;7584;60.468;25.126;2023-02-11T00:59:32;4.70;;;1.00;;
14975;SDS011;7584;60.468;25.126;2023-02-11T01:01:57;3.23;;;0.63;;
14975;SDS011;7584;60.468;25.126;2023-02-11T01:04:22;1.73;;;0.80;;
14975;SDS011;7584;60.468;25.126;2023-02-11T01:06:48;3.60;;;0.60;;
14975;SDS011;7584;60.468;25.126;2023-02-11T01:09:13;2.40;;;0.80;;
14975;SDS011;7584;60.468;25.126;2023-02-11T01:11:38;5.13;;;1.00;;
14975;SDS011;7584;60.468;25.126;2023-02-11T01:14:03;2.97;;;0.90;;
14975;SDS011;7584;60.468;25.126;2023-02-11T01:16:29;2.03;;;0.90;;
14975;SDS011;7584;60.468;25.126;2023-02-11T01:18:54;5.03;;;1.17;;
14975;SDS011;7584;60.468;25.126;2023-02-11T01:21:19;4.43;;;1.00;;
14975;SDS011;7584;60.468;25.126;2023-02-11T01:23:45;5.30;;;0.97;;
14975;SDS011;7584;60.468;25.126;2023-02-11T01:26:10;3.07;;;0.90;;
14975;SDS011;7584;60.468;25.126;2023-02-11T01:28:35;2.73;;;0.83;;
14975;SDS011;7584;60.468;25.126;2023-02-11T01:31:01;3.90;;;0.70;;
14975;SDS011;7584;60.468;25.126;2023-02-11T01:33:26;5.87;;;1.00;;
14975;SDS011;7584;60.468;25.126;2023-02-11T01:35:52;6.97;;;1.00;;
14975;SDS011;7584;60.468;25.126;2023-02-11T01:38:18;5.93;;;1.23;;
14975;SDS011;7584;60.468;25.126;2023-02-11T01:40:48;4.57;;;0.67;;
14975;SDS011;7584;60.468;25.126;2023-02-11T01:43:14;3.70;;;0.77;;
14975;SDS011;7584;60.468;25.126;2023-02-11T01:48:08;5.27;;;0.87;;
14975;SDS011;7584;60.468;25.126;2023-02-11T01:50:36;5.60;;;1.10;;
14975;SDS011;7584;60.468;25.126;2023-02-11T01:53:02;5.13;;;0.83;;
14975;SDS011;7584;60.468;25.126;2023-02-11T01:55:47;4.57;;;0.80;;
14975;SDS011;7584;60.468;25.126;2023-02-11T01:58:31;6.47;;;0.83;;
14975;SDS011;7584;60.468;25.126;2023-02-11T02:00:57;3.53;;;0.73;;
14975;SDS011;7584;60.468;25.126;2023-02-11T02:03:23;5.23;;;0.90;;
14975;SDS011;7584;60.468;25.126;2023-02-11T02:05:53;3.93;;;1.10;;
14975;SDS011;7584;60.468;25.126;2023-02-11T02:08:22;2.53;;;0.60;;
14975;SDS011;7584;60.468;25.126;2023-02-11T02:10:50;2.50;;;0.77;;
14975;SDS011;7584;60.468;25.126;2023-02-11T02:13:20;1.23;;;0.60;;
14975;SDS011;7584;60.468;25.126;2023-02-11T02:15:48;2.43;;;0.70;;
14975;SDS011;7584;60.468;25.126;2023-02-11T02:34:01;4.53;;;1.07;;
14975;SDS011;7584;60.468;25.126;2023-02-11T02:36:33;4.70;;;0.70;;
14975;SDS011;7584;60.468;25.126;2023-02-11T02:39:00;2.37;;;0.97;;
14975;SDS011;7584;60.468;25.126;2023-02-11T02:41:28;3.40;;;0.90;;
14975;SDS011;7584;60.468;25.126;2023-02-11T02:43:54;2.03;;;0.70;;
14975;SDS011;7584;60.468;25.126;2023-02-11T02:46:21;2.40;;;0.80;;
14975;SDS011;7584;60.468;25.126;2023-02-11T02:48:47;3.23;;;0.80;;
14975;SDS011;7584;60.468;25.126;2023-02-11T02:54:03;3.03;;;0.90;;
14975;SDS011;7584;60.468;25.126;2023-02-11T02:56:33;0.70;;;0.63;;
14975;SDS011;7584;60.468;25.126;2023-02-11T03:07:14;2.80;;;1.07;;
14975;SDS011;7584;60.468;25.126;2023-02-11T03:09:53;1.87;;;0.77;;
14975;SDS011;7584;60.468;25.126;2023-02-11T03:12:21;2.97;;;0.70;;
14975;SDS011;7584;60.468;25.126;2023-02-11T03:14:48;6.93;;;1.13;;
14975;SDS011;7584;60.468;25.126;2023-02-11T03:17:15;3.43;;;0.77;;
14975;SDS011;7584;60.468;25.126;2023-02-11T03:19:41;2.77;;;1.00;;
14975;SDS011;7584;60.468;25.126;2023-02-11T03:22:10;3.27;;;0.70;;
14975;SDS011;7584;60.468;25.126;2023-02-11T03:24:37;2.17;;;0.90;;
14975;SDS011;7584;60.468;25.126;2023-02-11T03:29:36;3.10;;;0.87;;
14975;SDS011;7584;60.468;25.126;2023-02-11T03:32:22;4.83;;;2.13;;
14975;SDS011;7584;60.468;25.126;2023-02-11T03:39:56;3.50;;;0.90;;
14975;SDS011;7584;60.468;25.126;2023-02-11T03:42:23;3.87;;;1.30;;
14975;SDS011;7584;60.468;25.126;2023-02-11T03:44:51;2.87;;;2.10;;
14975;SDS011;7584;60.468;25.126;2023-02-11T03:47:18;6.13;;;3.50;;
14975;SDS011;7584;60.468;25.126;2023-02-11T03:49:44;7.10;;;4.23;;
14975;SDS011;7584;60.468;25.126;2023-02-11T03:52:11;9.03;;;2.67;;
14975;SDS011;7584;60.468;25.126;2023-02-11T03:54:37;3.10;;;1.13;;
14975;SDS011;7584;60.468;25.126;2023-02-11T03:57:04;1.10;;;0.60;;
14975;SDS011;7584;60.468;25.126;2023-02-11T03:59:29;3.57;;;0.97;;
14975;SDS011;7584;60.468;25.126;2023-02-11T04:01:55;5.37;;;2.70;;
14975;SDS011;7584;60.468;25.126;2023-02-11T04:04:20;3.37;;;1.23;;
14975;SDS011;7584;60.468;25.126;2023-02-11T04:06:45;1.23;;;0.60;;
14975;SDS011;7584;60.468;25.126;2023-02-11T04:09:11;3.00;;;0.47;;
14975;SDS011;7584;60.468;25.126;2023-02-11T04:11:36;1.33;;;0.50;;
14975;SDS011;7584;60.468;25.126;2023-02-11T04:14:01;1.57;;;0.60;;
14975;SDS011;7584;60.468;25.126;2023-02-11T04:16:27;3.70;;;0.80;;
14975;SDS011;7584;60.468;25.126;2023-02-11T04:18:54;3.57;;;0.63;;
14975;SDS011;7584;60.468;25.126;2023-02-11T04:21:20;0.93;;;0.70;;
14975;SDS011;7584;60.468;25.126;2023-02-11T04:23:45;3.17;;;0.57;;
14975;SDS011;7584;60.468;25.126;2023-02-11T04:26:10;2.00;;;0.57;;
14975;SDS011;7584;60.468;25.126;2023-02-11T04:28:35;4.00;;;0.60;;
14975;SDS011;7584;60.468;25.126;2023-02-11T04:31:01;2.23;;;0.60;;
14975;SDS011;7584;60.468;25.126;2023-02-11T04:33:26;6.10;;;1.10;;
14975;SDS011;7584;60.468;25.126;2023-02-11T04:35:51;2.53;;;0.87;;
14975;SDS011;7584;60.468;25.126;2023-02-11T04:38:17;5.33;;;0.80;;
14975;SDS011;7584;60.468;25.126;2023-02-11T04:40:42;4.70;;;0.83;;
14975;SDS011;7584;60.468;25.126;2023-02-11T04:43:07;3.70;;;1.17;;
14975;SDS011;7584;60.468;25.126;2023-02-11T04:45:33;4.53;;;1.53;;
14975;SDS011;7584;60.468;25.126;2023-02-11T04:48:00;4.57;;;0.97;;
14975;SDS011;7584;60.468;25.126;2023-02-11T04:50:25;5.90;;;0.70;;
14975;SDS011;7584;60.468;25.126;2023-02-11T04:52:50;4.27;;;0.87;;
14975;SDS011;7584;60.468;25.126;2023-02-11T04:55:16;2.77;;;0.63;;
14975;SDS011;7584;60.468;25.126;2023-02-11T04:57:41;4.23;;;0.83;;
14975;SDS011;7584;60.468;25.126;2023-02-11T05:00:07;2.50;;;0.60;;
14975;SDS011;7584;60.468;25.126;2023-02-11T05:02:33;5.13;;;0.80;;
14975;SDS011;7584;60.468;25.126;2023-02-11T05:04:59;3.33;;;0.50;;
14975;SDS011;7584;60.468;25.126;2023-02-11T05:07:24;4.40;;;0.73;;
14975;SDS011;7584;60.468;25.126;2023-02-11T05:09:49;2.73;;;0.70;;
14975;SDS011;7584;60.468;25.126;2023-02-11T05:12:15;1.87;;;0.50;;
14975;SDS011;7584;60.468;25.126;2023-02-11T05:14:40;1.43;;;0.70;;
14975;SDS011;7584;60.468;25.126;2023-02-11T05:17:05;2.40;;;0.70;;
14975;SDS011;7584;60.468;25.126;2023-02-11T05:19:31;1.30;;;0.67;;
14975;SDS011;7584;60.468;25.126;2023-02-11T05:21:56;3.47;;;0.90;;
14975;SDS011;7584;60.468;25.126;2023-02-11T05:24:21;1.87;;;0.67;;
14975;SDS011;7584;60.468;25.126;2023-02-11T05:26:47;4.10;;;0.73;;
14975;SDS011;7584;60.468;25.126;2023-02-11T05:29:12;1.47;;;0.50;;
14975;SDS011;7584;60.468;25.126;2023-02-11T05:31:37;1.50;;;0.70;;
14975;SDS011;7584;60.468;25.126;2023-02-11T05:34:03;3.53;;;1.00;;
14975;SDS011;7584;60.468;25.126;2023-02-11T05:36:28;1.97;;;0.80;;
14975;SDS011;7584;60.468;25.126;2023-02-11T05:38:54;5.37;;;1.10;;
14975;SDS011;7584;60.468;25.126;2023-02-11T05:41:19;2.80;;;0.70;;
14975;SDS011;7584;60.468;25.126;2023-02-11T05:43:46;2.47;;;0.77;;
14975;SDS011;7584;60.468;25.126;2023-02-11T05:46:12;2.30;;;0.50;;
14975;SDS011;7584;60.468;25.126;2023-02-11T05:48:37;2.20;;;0.80;;
14975;SDS011;7584;60.468;25.126;2023-02-11T05:51:02;3.97;;;0.77;;
14975;SDS011;7584;60.468;25.126;2023-02-11T05:53:28;4.87;;;0.50;;
14975;SDS011;7584;60.468;25.126;2023-02-11T05:55:53;1.37;;;0.70;;
14975;SDS011;7584;60.468;25.126;2023-02-11T05:58:18;2.17;;;1.03;;
14975;SDS011;7584;60.468;25.126;2023-02-11T06:00:43;1.17;;;1.00;;
14975;SDS011;7584;60.468;25.126;2023-02-11T06:03:09;5.47;;;0.90;;
14975;SDS011;7584;60.468;25.126;2023-02-11T06:05:34;3.53;;;0.50;;
14975;SDS011;7584;60.468;25.126;2023-02-11T06:07:59;1.20;;;0.60;;
14975;SDS011;7584;60.468;25.126;2023-02-11T06:10:25;1.70;;;0.60;;
14975;SDS011;7584;60.468;25.126;2023-02-11T06:12:50;1.13;;;0.70;;
14975;SDS011;7584;60.468;25.126;2023-02-11T06:15:15;1.10;;;0.60;;
14975;SDS011;7584;60.468;25.126;2023-02-11T06:17:41;2.57;;;0.60;;
14975;SDS011;7584;60.468;25.126;2023-02-11T06:20:06;1.50;;;0.50;;
14975;SDS011;7584;60.468;25.126;2023-02-11T06:22:32;6.27;;;0.70;;
14975;SDS011;7584;60.468;25.126;2023-02-11T06:24:57;1.80;;;0.60;;
14975;SDS011;7584;60.468;25.126;2023-02-11T06:27:23;3.47;;;0.90;;
14975;SDS011;7584;60.468;25.126;2023-02-11T06:29:48;3.77;;;0.80;;
14975;SDS011;7584;60.468;25.126;2023-02-11T06:32:16;2.07;;;0.80;;
14975;SDS011;7584;60.468;25.126;2023-02-11T06:34:41;3.17;;;1.20;;
14975;SDS011;7584;60.468;25.126;2023-02-11T06:37:07;2.97;;;1.33;;
14975;SDS011;7584;60.468;25.126;2023-02-11T06:39:32;3.33;;;0.60;;
14975;SDS011;7584;60.468;25.126;2023-02-11T06:41:57;2.13;;;1.00;;
14975;SDS011;7584;60.468;25.126;2023-02-11T06:44:22;1.40;;;1.00;;
14975;SDS011;7584;60.468;25.126;2023-02-11T06:46:48;4.87;;;1.10;;
14975;SDS011;7584;60.468;25.126;2023-02-11T06:49:13;2.70;;;0.70;;
14975;SDS011;7584;60.468;25.126;2023-02-11T06:51:38;2.93;;;1.13;;
14975;SDS011;7584;60.468;25.126;2023-02-11T06:54:04;1.40;;;0.70;;
14975;SDS011;7584;60.468;25.126;2023-02-11T06:56:30;3.40;;;0.80;;
14975;SDS011;7584;60.468;25.126;2023-02-11T06:58:55;3.83;;;1.50;;
14975;SDS011;7584;60.468;25.126;2023-02-11T07:01:21;3.13;;;0.90;;
14975;SDS011;7584;60.468;25.126;2023-02-11T07:03:46;4.70;;;1.17;;
14975;SDS011;7584;60.468;25.126;2023-02-11T07:06:13;5.07;;;1.00;;
14975;SDS011;7584;60.468;25.126;2023-02-11T07:08:39;3.93;;;1.60;;
14975;SDS011;7584;60.468;25.126;2023-02-11T07:11:13;8.00;;;1.93;;
14975;SDS011;7584;60.468;25.126;2023-02-11T07:13:39;2.47;;;0.80;;
14975;SDS011;7584;60.468;25.126;2023-02-11T07:16:08;7.87;;;2.17;;
14975;SDS011;7584;60.468;25.126;2023-02-11T07:18:34;4.30;;;1.27;;
14975;SDS011;7584;60.468;25.126;2023-02-11T07:21:02;2.87;;;0.60;;
14975;SDS011;7584;60.468;25.126;2023-02-11T07:23:28;0.50;;;0.40;;
14975;SDS011;7584;60.468;25.126;2023-02-11T07:25:53;1.17;;;0.30;;
14975;SDS011;7584;60.468;25.126;2023-02-11T07:28:18;1.67;;;0.60;;
14975;SDS011;7584;60.468;25.126;2023-02-11T07:30:44;1.20;;;0.57;;
14975;SDS011;7584;60.468;25.126;2023-02-11T07:33:09;2.47;;;0.70;;
14975;SDS011;7584;60.468;25.126;2023-02-11T07:35:34;1.93;;;0.40;;
14975;SDS011;7584;60.468;25.126;2023-02-11T07:37:59;2.67;;;0.67;;
14975;SDS011;7584;60.468;25.126;2023-02-11T07:40:25;3.00;;;0.50;;
14975;SDS011;7584;60.468;25.126;2023-02-11T07:42:50;0.70;;;0.57;;
14975;SDS011;7584;60.468;25.126;2023-02-11T07:45:15;0.73;;;0.40;;
14975;SDS011;7584;60.468;25.126;2023-02-11T07:47:41;2.57;;;0.90;;
14975;SDS011;7584;60.468;25.126;2023-02-11T07:50:07;3.53;;;0.80;;
14975;SDS011;7584;60.468;25.126;2023-02-11T07:52:32;3.20;;;1.00;;
14975;SDS011;7584;60.468;25.126;2023-02-11T07:54:58;1.93;;;0.70;;
14975;SDS011;7584;60.468;25.126;2023-02-11T07:57:23;2.23;;;0.73;;
14975;SDS011;7584;60.468;25.126;2023-02-11T07:59:48;1.20;;;0.73;;
14975;SDS011;7584;60.468;25.126;2023-02-11T08:02:13;1.67;;;0.63;;
14975;SDS011;7584;60.468;25.126;2023-02-11T08:04:39;5.30;;;1.70;;
14975;SDS011;7584;60.468;25.126;2023-02-11T08:07:04;4.87;;;1.30;;
14975;SDS011;7584;60.468;25.126;2023-02-11T08:09:30;2.43;;;0.60;;
14975;SDS011;7584;60.468;25.126;2023-02-11T08:11:56;0.73;;;0.37;;
14975;SDS011;7584;60.468;25.126;2023-02-11T08:14:21;1.43;;;0.60;;
14975;SDS011;7584;60.468;25.126;2023-02-11T08:16:46;6.13;;;1.13;;
14975;SDS011;7584;60.468;25.126;2023-02-11T08:19:13;2.83;;;0.50;;
14975;SDS011;7584;60.468;25.126;2023-02-11T08:21:38;0.90;;;0.40;;
14975;SDS011;7584;60.468;25.126;2023-02-11T08:24:04;3.60;;;1.43;;
14975;SDS011;7584;60.468;25.126;2023-02-11T08:26:30;2.20;;;0.43;;
14975;SDS011;7584;60.468;25.126;2023-02-11T08:28:57;1.37;;;0.40;;
14975;SDS011;7584;60.468;25.126;2023-02-11T08:31:30;1.70;;;0.70;;
14975;SDS011;7584;60.468;25.126;2023-02-11T08:33:57;2.93;;;1.13;;
14975;SDS011;7584;60.468;25.126;2023-02-11T08:36:23;1.00;;;0.40;;
14975;SDS011;7584;60.468;25.126;2023-02-11T08:38:49;3.40;;;0.70;;
14975;SDS011;7584;60.468;25.126;2023-02-11T08:41:14;1.20;;;0.40;;
14975;SDS011;7584;60.468;25.126;2023-02-11T08:43:41;1.47;;;0.50;;
14975;SDS011;7584;60.468;25.126;2023-02-11T08:46:07;2.03;;;0.53;;
14975;SDS011;7584;60.468;25.126;2023-02-11T08:48:32;3.10;;;0.60;;
14975;SDS011;7584;60.468;25.126;2023-02-11T08:50:57;1.97;;;1.03;;
14975;SDS011;7584;60.468;25.126;2023-02-11T08:53:23;2.77;;;1.00;;
14975;SDS011;7584;60.468;25.126;2023-02-11T08:55:49;1.27;;;0.80;;
14975;SDS011;7584;60.468;25.126;2023-02-11T08:58:14;1.33;;;0.63;;
14975;SDS011;7584;60.468;25.126;2023-02-11T09:00:39;1.90;;;0.80;;
14975;SDS011;7584;60.468;25.126;2023-02-11T09:03:07;1.73;;;0.70;;
14975;SDS011;7584;60.468;25.126;2023-02-11T09:05:32;2.07;;;0.60;;
14975;SDS011;7584;60.468;25.126;2023-02-11T09:07:57;2.00;;;0.50;;
14975;SDS011;7584;60.468;25.126;2023-02-11T09:10:22;0.90;;;0.60;;
14975;SDS011;7584;60.468;25.126;2023-02-11T09:12:48;2.40;;;0.70;;
14975;SDS011;7584;60.468;25.126;2023-02-11T09:15:13;1.33;;;0.87;;
14975;SDS011;7584;60.468;25.126;2023-02-11T09:17:38;1.73;;;0.60;;
14975;SDS011;7584;60.468;25.126;2023-02-11T09:20:03;2.40;;;0.80;;
14975;SDS011;7584;60.468;25.126;2023-02-11T09:22:29;3.13;;;0.63;;
14975;SDS011;7584;60.468;25.126;2023-02-11T09:24:54;4.30;;;0.67;;
14975;SDS011;7584;60.468;25.126;2023-02-11T09:27:20;2.80;;;0.80;;
14975;SDS011;7584;60.468;25.126;2023-02-11T09:29:45;1.63;;;0.70;;
14975;SDS011;7584;60.468;25.126;2023-02-11T09:32:10;0.80;;;0.43;;
14975;SDS011;7584;60.468;25.126;2023-02-11T09:34:35;3.67;;;0.83;;
14975;SDS011;7584;60.468;25.126;2023-02-11T09:37:01;2.17;;;0.60;;
14975;SDS011;7584;60.468;25.126;2023-02-11T09:39:26;2.00;;;0.70;;
14975;SDS011;7584;60.468;25.126;2023-02-11T09:44:37;1.17;;;0.60;;
14975;SDS011;7584;60.468;25.126;2023-02-11T09:47:09;2.93;;;0.80;;
14975;SDS011;7584;60.468;25.126;2023-02-11T09:49:51;1.70;;;0.40;;
14975;SDS011;7584;60.468;25.126;2023-02-11T09:52:53;3.00;;;0.80;;
14975;SDS011;7584;60.468;25.126;2023-02-11T09:55:31;2.20;;;0.73;;
14975;SDS011;7584;60.468;25.126;2023-02-11T09:57:55;1.83;;;0.70;;
14975;SDS011;7584;60.468;25.126;2023-02-11T10:05:43;1.97;;;0.70;;
14975;SDS011;7584;60.468;25.126;2023-02-11T10:08:22;4.57;;;1.00;;
14975;SDS011;7584;60.468;25.126;2023-02-11T10:10:52;2.30;;;0.80;;
14975;SDS011;7584;60.468;25.126;2023-02-11T10:15:47;3.90;;;0.77;;
14975;SDS011;7584;60.468;25.126;2023-02-11T10:18:22;2.57;;;0.70;;
14975;SDS011;7584;60.468;25.126;2023-02-11T10:23:21;1.90;;;0.60;;
14975;SDS011;7584;60.468;25.126;2023-02-11T10:25:49;1.53;;;0.53;;
14975;SDS011;7584;60.468;25.126;2023-02-11T10:28:21;2.60;;;0.87;;
14975;SDS011;7584;60.468;25.126;2023-02-11T10:30:51;4.03;;;0.70;;
14975;SDS011;7584;60.468;25.126;2023-02-11T10:35:48;2.67;;;1.10;;
14975;SDS011;7584;60.468;25.126;2023-02-11T10:38:13;4.83;;;1.40;;
14975;SDS011;7584;60.468;25.126;2023-02-11T10:40:39;3.20;;;0.87;;
14975;SDS011;7584;60.468;25.126;2023-02-11T10:43:05;2.27;;;0.70;;
14975;SDS011;7584;60.468;25.126;2023-02-11T10:45:38;3.83;;;0.90;;
14975;SDS011;7584;60.468;25.126;2023-02-11T10:48:04;2.70;;;0.73;;
14975;SDS011;7584;60.468;25.126;2023-02-11T10:50:33;2.63;;;0.80;;
14975;SDS011;7584;60.468;25.126;2023-02-11T10:55:46;2.77;;;0.70;;
14975;SDS011;7584;60.468;25.126;2023-02-11T10:58:17;2.50;;;0.80;;
14975;SDS011;7584;60.468;25.126;2023-02-11T11:00:48;3.13;;;0.80;;
14975;SDS011;7584;60.468;25.126;2023-02-11T11:03:18;2.07;;;0.90;;
14975;SDS011;7584;60.468;25.126;2023-02-11T11:05:45;3.17;;;1.13;;
14975;SDS011;7584;60.468;25.126;2023-02-11T11:08:11;2.37;;;1.20;;
14975;SDS011;7584;60.468;25.126;2023-02-11T11:13:29;2.60;;;1.20;;
14975;SDS011;7584;60.468;25.126;2023-02-11T11:18:36;3.93;;;1.50;;
14975;SDS011;7584;60.468;25.126;2023-02-11T11:21:03;2.37;;;1.10;;
14975;SDS011;7584;60.468;25.126;2023-02-11T11:23:30;2.87;;;1.13;;
14975;SDS011;7584;60.468;25.126;2023-02-11T11:28:31;4.23;;;1.20;;
14975;SDS011;7584;60.468;25.126;2023-02-11T11:30:57;4.13;;;1.23;;
14975;SDS011;7584;60.468;25.126;2023-02-11T11:35:54;4.67;;;1.20;;
14975;SDS011;7584;60.468;25.126;2023-02-11T11:38:19;2.43;;;0.90;;
14975;SDS011;7584;60.468;25.126;2023-02-11T11:40:45;6.43;;;1.00;;
14975;SDS011;7584;60.468;25.126;2023-02-11T11:43:30;4.10;;;1.20;;
14975;SDS011;7584;60.468;25.126;2023-02-11T11:45:57;4.03;;;1.00;;
14975;SDS011;7584;60.468;25.126;2023-02-11T11:48:33;3.57;;;0.90;;
14975;SDS011;7584;60.468;25.126;2023-02-11T11:51:03;2.67;;;0.87;;
14975;SDS011;7584;60.468;25.126;2023-02-11T11:56:25;6.77;;;1.70;;
14975;SDS011;7584;60.468;25.126;2023-02-11T11:58:48;3.90;;;1.00;;
14975;SDS011;7584;60.468;25.126;2023-02-11T12:09:00;2.57;;;1.00;;
14975;SDS011;7584;60.468;25.126;2023-02-11T12:11:34;5.70;;;1.10;;
14975;SDS011;7584;60.468;25.126;2023-02-11T12:34:58;3.57;;;1.10;;
14975;SDS011;7584;60.468;25.126;2023-02-11T12:37:32;5.57;;;1.30;;
14975;SDS011;7584;60.468;25.126;2023-02-11T12:42:56;6.67;;;1.20;;
14975;SDS011;7584;60.468;25.126;2023-02-11T12:55:50;2.93;;;1.07;;
14975;SDS011;7584;60.468;25.126;2023-02-11T12:58:20;2.30;;;0.97;;
14975;SDS011;7584;60.468;25.126;2023-02-11T13:00:48;3.77;;;1.00;;
14975;SDS011;7584;60.468;25.126;2023-02-11T13:03:20;2.90;;;1.00;;
14975;SDS011;7584;60.468;25.126;2023-02-11T13:05:48;2.13;;;1.10;;
14975;SDS011;7584;60.468;25.126;2023-02-11T13:08:16;4.00;;;1.30;;
14975;SDS011;7584;60.468;25.126;2023-02-11T13:10:52;4.87;;;1.23;;
14975;SDS011;7584;60.468;25.126;2023-02-11T13:13:20;2.73;;;0.80;;
14975;SDS011;7584;60.468;25.126;2023-02-11T13:23:42;3.47;;;1.10;;
14975;SDS011;7584;60.468;25.126;2023-02-11T13:26:15;3.63;;;0.77;;
14975;SDS011;7584;60.468;25.126;2023-02-11T13:31:26;5.97;;;2.03;;
14975;SDS011;7584;60.468;25.126;2023-02-11T13:33:53;1.73;;;0.93;;
14975;SDS011;7584;60.468;25.126;2023-02-11T13:36:20;5.03;;;1.30;;
14975;SDS011;7584;60.468;25.126;2023-02-11T13:38:59;3.03;;;1.07;;
14975;SDS011;7584;60.468;25.126;2023-02-11T13:41:29;3.07;;;1.07;;
14975;SDS011;7584;60.468;25.126;2023-02-11T13:43:56;3.03;;;1.30;;
14975;SDS011;7584;60.468;25.126;2023-02-11T13:46:21;4.27;;;1.30;;
14975;SDS011;7584;60.468;25.126;2023-02-11T13:48:48;3.50;;;1.10;;
14975;SDS011;7584;60.468;25.126;2023-02-11T13:51:14;1.00;;;0.73;;
14975;SDS011;7584;60.468;25.126;2023-02-11T13:56:10;4.07;;;0.90;;
14975;SDS011;7584;60.468;25.126;2023-02-11T13:58:45;5.57;;;1.00;;
14975;SDS011;7584;60.468;25.126;2023-02-11T14:01:11;3.03;;;1.47;;
14975;SDS011;7584;60.468;25.126;2023-02-11T14:04:16;1.93;;;0.90;;
14975;SDS011;7584;60.468;25.126;2023-02-11T14:07:31;1.93;;;1.00;;
14975;SDS011;7584;60.468;25.126;2023-02-11T14:13:39;4.60;;;1.00;;
14975;SDS011;7584;60.468;25.126;2023-02-11T14:15:45;4.57;;;1.30;;
14975;SDS011;7584;60.468;25.126;2023-02-11T14:20:59;2.67;;;1.00;;
14975;SDS011;7584;60.468;25.126;2023-02-11T14:23:30;3.83;;;1.23;;
14975;SDS011;7584;60.468;25.126;2023-02-11T14:26:02;1.37;;;0.80;;
14975;SDS011;7584;60.468;25.126;2023-02-11T14:28:29;2.70;;;1.00;;
14975;SDS011;7584;60.468;25.126;2023-02-11T14:31:11;2.67;;;1.10;;
14975;SDS011;7584;60.468;25.126;2023-02-11T14:33:47;2.60;;;1.00;;
14975;SDS011;7584;60.468;25.126;2023-02-11T14:41:42;4.50;;;1.10;;
14975;SDS011;7584;60.468;25.126;2023-02-11T14:44:27;2.77;;;1.10;;
14975;SDS011;7584;60.468;25.126;2023-02-11T14:46:53;2.77;;;1.20;;
14975;SDS011;7584;60.468;25.126;2023-02-11T14:51:44;6.07;;;1.77;;
14975;SDS011;7584;60.468;25.126;2023-02-11T14:54:12;5.23;;;2.27;;
14975;SDS011;7584;60.468;25.126;2023-02-11T14:56:39;4.47;;;3.17;;
14975;SDS011;7584;60.468;25.126;2023-02-11T14:59:16;3.23;;;1.60;;
14975;SDS011;7584;60.468;25.126;2023-02-11T15:01:43;4.10;;;1.50;;
14975;SDS011;7584;60.468;25.126;2023-02-11T15:04:31;5.23;;;1.87;;
14975;SDS011;7584;60.468;25.126;2023-02-11T15:06:57;4.97;;;1.67;;
14975;SDS011;7584;60.468;25.126;2023-02-11T15:09:28;6.27;;;2.20;;
14975;SDS011;7584;60.468;25.126;2023-02-11T15:11:56;5.73;;;1.87;;
14975;SDS011;7584;60.468;25.126;2023-02-11T15:14:22;6.10;;;1.73;;
14975;SDS011;7584;60.468;25.126;2023-02-11T15:16:48;3.67;;;1.50;;
14975;SDS011;7584;60.468;25.126;2023-02-11T15:19:20;5.10;;;1.90;;
14975;SDS011;7584;60.468;25.126;2023-02-11T15:21:46;6.67;;;2.00;;
14975;SDS011;7584;60.468;25.126;2023-02-11T15:24:25;3.23;;;1.77;;
14975;SDS011;7584;60.468;25.126;2023-02-11T15:26:55;3.63;;;2.00;;
14975;SDS011;7584;60.468;25.126;2023-02-11T15:29:22;4.93;;;1.53;;
14975;SDS011;7584;60.468;25.126;2023-02-11T15:32:01;4.03;;;1.50;;
14975;SDS011;7584;60.468;25.126;2023-02-11T15:34:26;5.93;;;2.67;;
14975;SDS011;7584;60.468;25.126;2023-02-11T15:36:51;4.10;;;2.20;;
14975;SDS011;7584;60.468;25.126;2023-02-11T15:42:15;6.03;;;2.50;;
14975;SDS011;7584;60.468;25.126;2023-02-11T15:44:41;5.03;;;2.27;;
14975;SDS011;7584;60.468;25.126;2023-02-11T15:47:15;5.33;;;2.40;;
14975;SDS011;7584;60.468;25.126;2023-02-11T15:49:45;7.50;;;2.97;;
14975;SDS011;7584;60.468;25.126;2023-02-11T15:52:11;5.53;;;1.77;;
14975;SDS011;7584;60.468;25.126;2023-02-11T15:54:38;6.50;;;1.93;;
14975;SDS011;7584;60.468;25.126;2023-02-11T15:57:04;2.20;;;1.30;;
14975;SDS011;7584;60.468;25.126;2023-02-11T15:59:38;4.50;;;1.97;;
14975;SDS011;7584;60.468;25.126;2023-02-11T16:02:15;6.27;;;1.63;;
14975;SDS011;7584;60.468;25.126;2023-02-11T16:04:48;4.47;;;1.90;;
14975;SDS011;7584;60.468;25.126;2023-02-11T16:07:36;6.73;;;2.17;;
14975;SDS011;7584;60.468;25.126;2023-02-11T16:09:58;5.13;;;1.60;;
14975;SDS011;7584;60.468;25.126;2023-02-11T16:12:24;4.57;;;1.63;;
14975;SDS011;7584;60.468;25.126;2023-02-11T16:14:53;4.90;;;1.90;;
14975;SDS011;7584;60.468;25.126;2023-02-11T16:17:24;3.43;;;1.50;;
14975;SDS011;7584;60.468;25.126;2023-02-11T16:19:51;5.90;;;1.83;;
14975;SDS011;7584;60.468;25.126;2023-02-11T16:22:27;5.53;;;1.40;;
14975;SDS011;7584;60.468;25.126;2023-02-11T16:24:54;4.70;;;1.73;;
14975;SDS011;7584;60.468;25.126;2023-02-11T16:27:22;5.67;;;1.90;;
14975;SDS011;7584;60.468;25.126;2023-02-11T16:29:49;2.70;;;1.47;;
14975;SDS011;7584;60.468;25.126;2023-02-11T16:34:40;6.83;;;1.83;;
14975;SDS011;7584;60.468;25.126;2023-02-11T16:37:05;4.70;;;1.43;;
14975;SDS011;7584;60.468;25.126;2023-02-11T16:39:30;3.30;;;1.60;;
14975;SDS011;7584;60.468;25.126;2023-02-11T16:41:56;4.40;;;1.60;;
14975;SDS011;7584;60.468;25.126;2023-02-11T16:44:22;4.30;;;1.43;;
14975;SDS011;7584;60.468;25.126;2023-02-11T16:46:48;2.50;;;1.50;;
14975;SDS011;7584;60.468;25.126;2023-02-11T16:49:20;3.83;;;1.63;;
14975;SDS011;7584;60.468;25.126;2023-02-11T16:51:50;6.97;;;1.10;;
14975;SDS011;7584;60.468;25.126;2023-02-11T16:54:17;2.53;;;1.40;;
14975;SDS011;7584;60.468;25.126;2023-02-11T16:56:42;4.30;;;1.53;;
14975;SDS011;7584;60.468;25.126;2023-02-11T16:59:08;3.03;;;1.50;;
14975;SDS011;7584;60.468;25.126;2023-02-11T17:01:34;7.10;;;1.70;;
14975;SDS011;7584;60.468;25.126;2023-02-11T17:03:59;5.63;;;1.60;;
14975;SDS011;7584;60.468;25.126;2023-02-11T17:06:26;5.30;;;1.57;;
14975;SDS011;7584;60.468;25.126;2023-02-11T17:08:51;3.73;;;1.50;;
14975;SDS011;7584;60.468;25.126;2023-02-11T17:11:16;5.90;;;1.17;;
14975;SDS011;7584;60.468;25.126;2023-02-11T17:13:43;4.20;;;1.50;;